Time;durP1;ratioP1;P1;durP2;ratioP2;P2;SDS_P1;SDS_P2;PMS_P1;PMS_P2;Temp;Humidity;BMP_temperature;BMP_pressure;BME280_temperature;BME280_humidity;BME280_pressure;Samples;Min_cycle;Max_cycle;Signal;HPM_P1;HPM_P2
2021/04/02 00:00:34;;;;;;;13.13;5.90;;;7.60;1.00;;;;;;5016838;28;20474;-81
2021/04/02 00:03:09;;;;;;;9.00;5.20;;;7.50;1.00;;;;;;5012453;28;20831;-82
2021/04/02 00:05:35;;;;;;;8.40;5.07;;;7.50;1.00;;;;;;5010440;28;20484;-81
2021/04/02 00:08:01;;;;;;;16.17;6.67;;;7.40;1.00;;;;;;5022358;28;20609;-81
2021/04/02 00:10:44;;;;;;;9.77;6.30;;;7.30;1.00;;;;;;5010387;28;20198;-82
2021/04/02 00:13:12;;;;;;;7.47;5.70;;;7.30;1.00;;;;;;5007806;28;20693;-82
2021/04/02 00:15:37;;;;;;;9.07;5.73;;;7.30;1.00;;;;;;5009428;28;20468;-81
2021/04/02 00:18:05;;;;;;;11.40;5.80;;;7.20;1.00;;;;;;5007261;28;20543;-82
2021/04/02 00:20:31;;;;;;;8.73;6.40;;;7.30;1.00;;;;;;5008530;28;20200;-81
2021/04/02 00:22:57;;;;;;;6.77;5.33;;;7.30;1.00;;;;;;5009668;28;20463;-82
2021/04/02 00:25:22;;;;;;;5.63;5.00;;;7.30;1.00;;;;;;5006937;28;20462;-80
2021/04/02 00:27:48;;;;;;;7.07;4.90;;;7.20;1.00;;;;;;5007602;28;20223;-82
2021/04/02 00:30:15;;;;;;;7.40;5.60;;;7.20;1.00;;;;;;5009373;28;20200;-81
2021/04/02 00:32:42;;;;;;;10.53;5.23;;;7.20;1.00;;;;;;5012092;28;20222;-82
2021/04/02 00:35:10;;;;;;;14.00;6.03;;;7.10;1.00;;;;;;5014001;28;20450;-81
2021/04/02 00:37:36;;;;;;;10.87;6.23;;;7.10;1.00;;;;;;5019845;28;20502;-82
2021/04/02 00:40:02;;;;;;;10.93;6.70;;;7.10;1.00;;;;;;5019367;28;21042;-82
2021/04/02 00:42:28;;;;;;;13.97;6.43;;;7.10;1.00;;;;;;5014487;28;20816;-82
2021/04/02 00:44:54;;;;;;;9.47;5.37;;;7.00;1.00;;;;;;5007562;28;20539;-81
2021/04/02 00:47:20;;;;;;;11.87;6.37;;;7.00;1.00;;;;;;5007702;28;20310;-82
2021/04/02 00:49:45;;;;;;;9.07;5.30;;;7.00;1.00;;;;;;5007814;28;20447;-81
2021/04/02 00:52:11;;;;;;;9.87;6.23;;;6.90;1.00;;;;;;5004608;28;20207;-82
2021/04/02 00:54:37;;;;;;;11.70;6.53;;;6.90;1.00;;;;;;5003174;28;20180;-83
2021/04/02 00:57:04;;;;;;;12.00;5.97;;;6.90;1.00;;;;;;5007657;28;20326;-82
2021/04/02 00:59:29;;;;;;;9.03;5.50;;;7.00;1.00;;;;;;5005972;28;20184;-81
2021/04/02 01:01:56;;;;;;;11.03;5.60;;;7.00;1.00;;;;;;5011122;28;20424;-82
2021/04/02 01:04:22;;;;;;;7.90;5.20;;;7.00;1.00;;;;;;5005635;28;20438;-82
2021/04/02 01:06:47;;;;;;;8.40;5.90;;;7.00;1.00;;;;;;5008971;28;20215;-82
2021/04/02 01:09:13;;;;;;;14.10;6.57;;;7.10;1.00;;;;;;5004979;28;20975;-83
2021/04/02 01:11:39;;;;;;;7.93;6.33;;;7.10;1.00;;;;;;5007745;28;20441;-82
2021/04/02 01:14:06;;;;;;;7.90;4.73;;;7.20;1.00;;;;;;4999157;28;21085;-82
2021/04/02 01:16:34;;;;;;;9.30;5.63;;;7.10;1.00;;;;;;5005426;28;20442;-82
2021/04/02 01:19:05;;;;;;;8.77;6.13;;;7.10;1.00;;;;;;5005557;28;20646;-82
2021/04/02 01:21:36;;;;;;;14.30;6.67;;;7.10;1.00;;;;;;5021705;28;20445;-83
2021/04/02 01:24:20;;;;;;;9.20;5.73;;;7.20;1.00;;;;;;5005727;28;21077;-83
2021/04/02 01:27:09;;;;;;;8.37;5.40;;;7.10;1.00;;;;;;5003599;28;20462;-82
2021/04/02 01:29:45;;;;;;;11.20;6.70;;;7.20;1.00;;;;;;5010420;28;20472;-83
2021/04/02 01:32:17;;;;;;;12.63;5.67;;;7.20;1.00;;;;;;5007884;28;20462;-83
2021/04/02 01:34:47;;;;;;;8.83;5.37;;;7.20;1.00;;;;;;4986941;28;20474;-84
2021/04/02 01:37:37;;;;;;;11.27;5.30;;;7.30;1.00;;;;;;5007503;28;20437;-84
2021/04/02 01:40:08;;;;;;;10.97;7.03;;;7.30;1.00;;;;;;5007495;28;20443;-83
2021/04/02 01:42:37;;;;;;;10.97;5.30;;;7.10;1.00;;;;;;5006168;28;20453;-83
2021/04/02 01:45:06;;;;;;;8.30;6.00;;;7.10;1.00;;;;;;5002934;28;20471;-83
2021/04/02 01:47:33;;;;;;;9.03;5.77;;;7.20;1.00;;;;;;5006876;28;20547;-82
2021/04/02 01:50:01;;;;;;;14.00;5.70;;;7.10;1.00;;;;;;5005933;28;20450;-83
2021/04/02 01:52:29;;;;;;;14.40;5.43;;;7.00;1.00;;;;;;5023546;28;20455;-83
2021/04/02 01:54:57;;;;;;;8.20;5.83;;;7.00;1.00;;;;;;5018559;28;21144;-83
2021/04/02 01:57:25;;;;;;;11.30;5.90;;;7.00;1.00;;;;;;5000366;28;20445;-83
2021/04/02 01:59:54;;;;;;;8.87;4.70;;;7.10;1.00;;;;;;5009198;28;20505;-83
2021/04/02 02:02:22;;;;;;;9.70;5.90;;;7.00;1.00;;;;;;5005583;28;20455;-84
2021/04/02 02:04:49;;;;;;;12.23;5.20;;;6.90;1.00;;;;;;5012171;28;20446;-83
2021/04/02 02:07:17;;;;;;;10.43;5.00;;;6.90;1.00;;;;;;5013368;28;21071;-83
2021/04/02 02:09:57;;;;;;;10.57;5.10;;;6.90;1.00;;;;;;5013341;28;20644;-83
2021/04/02 02:12:38;;;;;;;8.60;5.13;;;7.00;1.00;;;;;;5009831;28;20431;-82
2021/04/02 02:15:16;;;;;;;7.40;5.93;;;7.00;1.00;;;;;;5010650;28;20553;-83
2021/04/02 02:17:48;;;;;;;10.83;6.47;;;6.90;1.00;;;;;;5017950;28;20550;-83
2021/04/02 02:20:15;;;;;;;10.10;5.57;;;6.90;1.00;;;;;;5022857;28;20424;-82
2021/04/02 02:22:42;;;;;;;10.47;7.30;;;6.90;1.00;;;;;;5007293;28;20945;-83
2021/04/02 02:25:14;;;;;;;11.30;6.03;;;6.90;1.00;;;;;;5006342;28;21167;-83
2021/04/02 02:27:48;;;;;;;9.53;5.53;;;6.90;1.00;;;;;;5020035;28;21097;-83
2021/04/02 02:30:19;;;;;;;11.60;6.43;;;6.60;1.00;;;;;;5018814;28;20514;-83
2021/04/02 02:32:51;;;;;;;12.20;5.30;;;6.60;1.00;;;;;;5004755;28;20453;-83
2021/04/02 02:35:18;;;;;;;8.70;5.67;;;6.50;1.00;;;;;;5003435;28;20446;-83
2021/04/02 02:37:47;;;;;;;7.27;5.53;;;6.50;1.00;;;;;;5016933;28;20450;-83
2021/04/02 02:40:23;;;;;;;11.53;7.00;;;6.60;1.00;;;;;;5006528;28;20490;-83
2021/04/02 02:42:50;;;;;;;9.53;5.80;;;6.60;1.00;;;;;;5003579;28;20479;-83
2021/04/02 02:45:17;;;;;;;9.50;5.17;;;6.60;1.00;;;;;;5003526;28;20484;-83
2021/04/02 02:47:44;;;;;;;10.93;6.10;;;6.70;1.00;;;;;;5001553;28;20529;-84
2021/04/02 02:50:18;;;;;;;13.83;5.90;;;6.70;1.00;;;;;;5006819;28;20510;-83
2021/04/02 02:52:46;;;;;;;13.47;7.10;;;6.80;1.00;;;;;;5005084;28;20477;-83
2021/04/02 02:55:15;;;;;;;9.43;6.47;;;6.70;1.00;;;;;;5005216;28;20442;-83
2021/04/02 02:57:43;;;;;;;14.10;7.00;;;6.70;1.00;;;;;;5004886;28;20455;-83
2021/04/02 03:00:16;;;;;;;17.20;6.90;;;6.70;1.00;;;;;;5006834;28;20560;-84
2021/04/02 03:02:46;;;;;;;14.20;6.30;;;6.70;1.00;;;;;;5005351;28;20513;-83
2021/04/02 03:05:15;;;;;;;13.10;7.03;;;6.70;1.00;;;;;;5004518;28;21846;-82
2021/04/02 03:07:43;;;;;;;16.97;6.73;;;6.80;1.00;;;;;;5005286;28;20510;-84
2021/04/02 03:10:11;;;;;;;11.63;7.33;;;6.80;1.00;;;;;;5018732;28;20442;-83
2021/04/02 03:12:40;;;;;;;11.07;6.50;;;6.60;1.00;;;;;;5006693;28;20454;-84
2021/04/02 03:15:08;;;;;;;14.87;6.37;;;6.60;1.00;;;;;;5006383;28;20466;-83
2021/04/02 03:17:39;;;;;;;15.10;7.37;;;6.60;1.00;;;;;;5017632;28;20485;-83
2021/04/02 03:20:07;;;;;;;8.87;6.57;;;6.60;1.00;;;;;;5005380;28;20477;-83
2021/04/02 03:22:34;;;;;;;15.80;7.50;;;6.60;1.00;;;;;;5005735;28;20499;-83
2021/04/02 03:25:20;;;;;;;11.73;8.33;;;6.70;1.00;;;;;;5005393;28;20441;-83
2021/04/02 03:27:53;;;;;;;11.13;6.63;;;6.70;1.00;;;;;;5010863;28;20484;-83
2021/04/02 03:30:29;;;;;;;13.47;8.30;;;6.70;1.00;;;;;;5003619;28;20461;-83
2021/04/02 03:33:03;;;;;;;11.53;7.60;;;6.70;1.00;;;;;;5006194;28;21205;-83
2021/04/02 03:35:30;;;;;;;16.67;7.00;;;6.80;1.00;;;;;;5003244;28;20447;-83
2021/04/02 03:37:56;;;;;;;14.50;8.27;;;6.80;1.00;;;;;;5014997;28;21060;-83
2021/04/02 03:40:25;;;;;;;11.27;7.00;;;6.70;1.00;;;;;;5007630;28;20452;-83
2021/04/02 03:42:57;;;;;;;13.70;8.37;;;6.60;1.00;;;;;;5005919;28;21172;-83
2021/04/02 03:45:25;;;;;;;16.03;7.20;;;6.50;1.00;;;;;;5006020;28;20464;-83
2021/04/02 03:47:53;;;;;;;19.10;9.50;;;6.30;1.00;;;;;;5009197;28;20774;-83
2021/04/02 03:50:20;;;;;;;11.63;7.47;;;6.30;1.00;;;;;;5014141;28;20540;-83
2021/04/02 03:53:15;;;;;;;16.23;8.53;;;6.10;1.00;;;;;;5007263;28;20448;-84
2021/04/02 03:55:46;;;;;;;11.90;7.50;;;6.20;1.00;;;;;;5013885;28;20448;-83
2021/04/02 03:58:16;;;;;;;13.07;7.60;;;6.20;1.00;;;;;;5016079;28;20514;-82
2021/04/02 04:00:53;;;;;;;14.37;8.20;;;6.10;1.00;;;;;;5010074;28;20454;-83
2021/04/02 04:03:22;;;;;;;13.43;7.73;;;6.20;1.00;;;;;;5009245;28;20456;-83
2021/04/02 04:05:56;;;;;;;13.67;7.90;;;6.20;1.00;;;;;;5009886;28;20536;-83
2021/04/02 04:08:25;;;;;;;12.07;8.30;;;6.20;1.00;;;;;;5007256;28;20582;-83
2021/04/02 04:10:54;;;;;;;12.40;8.47;;;6.10;1.00;;;;;;5007798;28;20989;-83
2021/04/02 04:13:25;;;;;;;13.03;7.73;;;6.00;1.00;;;;;;5009871;28;20631;-84
2021/04/02 04:15:54;;;;;;;11.13;8.30;;;6.00;1.00;;;;;;5007798;28;22368;-83
2021/04/02 04:18:21;;;;;;;14.30;8.90;;;6.10;1.00;;;;;;5009171;28;20539;-83
2021/04/02 04:20:48;;;;;;;15.80;8.37;;;6.20;1.00;;;;;;5010129;28;20495;-83
2021/04/02 04:23:18;;;;;;;12.53;9.17;;;6.10;1.00;;;;;;5005415;28;20454;-84
2021/04/02 04:25:45;;;;;;;18.03;8.40;;;6.00;1.00;;;;;;5009089;28;20447;-83
2021/04/02 04:28:14;;;;;;;21.60;8.90;;;6.00;1.00;;;;;;5009351;28;20542;-83
2021/04/02 04:30:40;;;;;;;12.10;8.00;;;6.00;1.00;;;;;;5010711;28;20516;-84
2021/04/02 04:33:07;;;;;;;16.37;9.60;;;6.00;1.00;;;;;;5008458;28;20870;-84
2021/04/02 04:35:33;;;;;;;15.23;9.20;;;6.00;1.00;;;;;;5008705;28;20453;-84
2021/04/02 04:38:01;;;;;;;15.60;8.63;;;5.90;1.00;;;;;;5019864;28;20616;-84
2021/04/02 04:40:29;;;;;;;18.67;9.67;;;5.80;1.00;;;;;;5012403;28;20490;-83
2021/04/02 04:42:54;;;;;;;17.43;9.23;;;5.90;1.00;;;;;;5009703;28;20640;-82
2021/04/02 04:45:23;;;;;;;22.77;9.70;;;5.90;1.00;;;;;;5010411;28;20682;-83
2021/04/02 04:47:49;;;;;;;13.73;8.50;;;5.80;1.00;;;;;;5009674;28;20223;-83
2021/04/02 04:50:16;;;;;;;15.93;9.87;;;5.70;1.00;;;;;;5008384;28;20507;-84
2021/04/02 04:52:50;;;;;;;13.23;9.03;;;5.70;1.00;;;;;;5009309;28;20314;-84
2021/04/02 04:55:17;;;;;;;20.00;9.67;;;5.70;1.00;;;;;;5022700;28;20449;-84
2021/04/02 04:57:43;;;;;;;16.20;9.90;;;5.70;1.00;;;;;;5009198;28;20509;-83
2021/04/02 05:00:15;;;;;;;15.60;9.83;;;5.70;1.00;;;;;;5006224;28;20463;-82
2021/04/02 05:02:43;;;;;;;14.10;9.67;;;5.80;1.00;;;;;;5009140;28;20860;-82
2021/04/02 05:05:15;;;;;;;16.73;9.17;;;5.80;1.00;;;;;;5005243;28;20857;-83
2021/04/02 05:07:42;;;;;;;17.73;10.00;;;5.80;1.00;;;;;;5005658;28;20817;-81
2021/04/02 05:10:09;;;;;;;16.37;9.87;;;5.80;1.00;;;;;;5008865;28;20545;-82
2021/04/02 05:12:36;;;;;;;14.90;9.67;;;5.70;1.00;;;;;;5007498;28;20454;-83
2021/04/02 05:15:03;;;;;;;19.63;9.47;;;5.70;1.00;;;;;;5007340;28;20474;-82
2021/04/02 05:17:29;;;;;;;16.20;8.73;;;5.60;1.00;;;;;;5007258;28;20544;-83
2021/04/02 05:19:55;;;;;;;16.77;10.00;;;5.70;1.00;;;;;;5006613;28;20918;-83
2021/04/02 05:22:21;;;;;;;17.77;8.70;;;5.50;1.00;;;;;;5009909;28;20541;-82
2021/04/02 05:24:47;;;;;;;15.00;9.17;;;5.50;1.00;;;;;;5004513;28;20454;-82
2021/04/02 05:27:12;;;;;;;18.30;9.63;;;5.60;1.00;;;;;;5007512;28;20252;-83
2021/04/02 05:29:38;;;;;;;12.80;8.23;;;5.50;1.00;;;;;;5007912;28;20203;-83
2021/04/02 05:32:04;;;;;;;22.07;10.67;;;5.40;1.00;;;;;;5007700;28;20330;-82
2021/04/02 05:34:30;;;;;;;13.70;9.50;;;5.40;1.00;;;;;;5008808;28;21033;-82
2021/04/02 05:36:56;;;;;;;16.10;11.30;;;5.40;1.00;;;;;;5005495;28;20476;-83
2021/04/02 05:39:21;;;;;;;17.27;10.03;;;5.40;1.00;;;;;;5007831;28;20660;-84
2021/04/02 05:41:52;;;;;;;16.13;9.40;;;5.60;1.00;;;;;;5006327;28;21182;-83
2021/04/02 05:44:24;;;;;;;21.47;9.83;;;5.60;1.00;;;;;;5012050;28;20246;-83
2021/04/02 05:46:52;;;;;;;20.53;9.93;;;5.50;1.00;;;;;;5014778;28;20511;-83
2021/04/02 05:49:20;;;;;;;17.67;10.30;;;5.30;1.00;;;;;;5024042;28;20807;-82
2021/04/02 05:51:48;;;;;;;15.40;10.33;;;5.40;1.00;;;;;;5026838;28;20522;-83
2021/04/02 05:54:22;;;;;;;14.67;8.67;;;5.40;1.00;;;;;;5016887;28;20450;-83
2021/04/02 05:56:49;;;;;;;17.33;9.73;;;5.20;1.00;;;;;;5020991;28;20542;-83
2021/04/02 05:59:16;;;;;;;14.00;9.30;;;5.30;1.00;;;;;;5006125;28;20687;-83
2021/04/02 06:01:42;;;;;;;17.03;9.80;;;5.30;1.00;;;;;;5004563;28;20500;-83
2021/04/02 06:04:08;;;;;;;16.57;8.30;;;5.30;1.00;;;;;;5006170;28;20536;-79
2021/04/02 06:06:34;;;;;;;13.43;8.30;;;5.30;1.00;;;;;;5011481;28;20445;-80
2021/04/02 06:08:59;;;;;;;16.27;8.50;;;5.20;1.00;;;;;;5012787;28;20461;-80
2021/04/02 06:11:25;;;;;;;12.60;7.80;;;5.20;1.00;;;;;;5013813;28;20446;-82
2021/04/02 06:13:51;;;;;;;19.43;10.47;;;5.20;1.00;;;;;;5015848;28;20252;-79
2021/04/02 06:16:17;;;;;;;15.83;8.47;;;5.10;1.00;;;;;;5015102;28;20271;-85
2021/04/02 06:18:44;;;;;;;16.77;9.90;;;5.20;1.00;;;;;;5020038;28;20197;-81
2021/04/02 06:21:10;;;;;;;18.30;9.80;;;5.20;1.00;;;;;;5018870;28;20870;-82
2021/04/02 06:23:37;;;;;;;14.43;9.13;;;5.30;1.00;;;;;;5012550;28;20461;-82
2021/04/02 06:26:13;;;;;;;22.63;10.80;;;5.30;1.00;;;;;;5013096;28;20453;-81
2021/04/02 06:28:42;;;;;;;16.27;9.50;;;5.40;1.00;;;;;;5013527;28;20459;-82
2021/04/02 06:31:13;;;;;;;11.83;8.60;;;5.40;1.00;;;;;;5017548;28;20692;-82
2021/04/02 06:33:51;;;;;;;13.90;10.00;;;5.40;1.00;;;;;;5009560;28;20480;-81
2021/04/02 06:36:20;;;;;;;19.27;10.77;;;5.40;1.00;;;;;;5013925;28;20489;-82
2021/04/02 06:38:56;;;;;;;17.87;10.63;;;5.40;1.00;;;;;;5014323;28;20969;-81
2021/04/02 06:41:24;;;;;;;19.50;10.20;;;5.40;1.00;;;;;;5016257;28;20456;-79
2021/04/02 06:43:52;;;;;;;15.17;10.37;;;5.40;1.00;;;;;;5012457;28;20542;-84
2021/04/02 06:46:27;;;;;;;15.97;8.60;;;5.40;1.00;;;;;;5018900;28;20534;-83
2021/04/02 06:48:54;;;;;;;14.70;8.57;;;5.60;1.00;;;;;;5017065;28;20448;-83
2021/04/02 06:51:22;;;;;;;15.93;8.90;;;5.60;1.00;;;;;;5012617;28;20572;-82
2021/04/02 06:53:51;;;;;;;16.73;10.13;;;5.30;1.00;;;;;;5015710;28;20471;-84
2021/04/02 06:56:19;;;;;;;15.20;10.27;;;5.40;1.00;;;;;;5021421;28;23043;-83
2021/04/02 06:58:45;;;;;;;12.37;8.30;;;5.50;1.00;;;;;;5019396;28;20734;-84
2021/04/02 07:01:14;;;;;;;12.63;8.83;;;5.50;1.00;;;;;;5011534;28;20476;-83
2021/04/02 07:03:42;;;;;;;12.67;8.37;;;5.50;1.00;;;;;;5012512;28;20555;-84
2021/04/02 07:06:08;;;;;;;12.37;9.23;;;5.50;1.00;;;;;;5016036;28;21214;-84
2021/04/02 07:08:37;;;;;;;14.67;9.10;;;5.50;1.00;;;;;;5014076;28;20587;-84
2021/04/02 07:11:03;;;;;;;18.77;8.93;;;5.60;1.00;;;;;;5014712;28;21160;-84
2021/04/02 07:13:53;;;;;;;14.40;9.27;;;5.50;1.00;;;;;;5016538;28;20523;-85
2021/04/02 07:16:20;;;;;;;16.10;8.67;;;5.60;1.00;;;;;;5008917;28;20455;-84
2021/04/02 07:18:47;;;;;;;12.33;8.23;;;5.50;1.00;;;;;;5018452;28;21055;-84
2021/04/02 07:21:13;;;;;;;11.03;8.40;;;5.50;1.00;;;;;;5016282;28;20580;-85
2021/04/02 07:23:41;;;;;;;11.87;8.67;;;5.50;1.00;;;;;;5014246;28;20963;-84
2021/04/02 07:26:08;;;;;;;17.13;9.40;;;5.50;1.00;;;;;;5015207;28;20471;-83
2021/04/02 07:28:36;;;;;;;13.30;9.63;;;5.50;1.00;;;;;;5018807;28;20507;-85
2021/04/02 07:31:04;;;;;;;15.70;8.47;;;5.60;1.00;;;;;;5023161;28;20837;-82
2021/04/02 07:33:30;;;;;;;18.30;9.33;;;5.50;1.00;;;;;;5011751;28;20493;-82
2021/04/02 07:36:00;;;;;;;18.20;9.40;;;5.40;1.00;;;;;;5010297;28;20958;-82
2021/04/02 07:38:31;;;;;;;17.60;9.40;;;5.40;1.00;;;;;;5011516;28;20465;-82
2021/04/02 07:40:57;;;;;;;19.77;10.30;;;5.50;1.00;;;;;;5009258;28;20433;-82
2021/04/02 07:43:30;;;;;;;15.50;9.03;;;5.50;1.00;;;;;;5014888;28;20492;-82
2021/04/02 07:46:13;;;;;;;17.27;11.00;;;5.50;1.00;;;;;;5011606;28;20507;-82
2021/04/02 07:48:39;;;;;;;15.97;9.97;;;5.30;1.00;;;;;;5014699;28;20450;-82
2021/04/02 07:51:05;;;;;;;13.90;8.60;;;5.30;1.00;;;;;;5015582;28;20454;-82
2021/04/02 07:53:30;;;;;;;20.00;11.17;;;5.40;1.00;;;;;;5015941;28;20199;-81
2021/04/02 07:56:03;;;;;;;19.67;9.10;;;5.40;1.00;;;;;;5009412;28;20451;-82
2021/04/02 07:58:30;;;;;;;20.90;9.30;;;5.40;1.00;;;;;;5012830;28;20194;-82
2021/04/02 08:00:58;;;;;;;12.50;8.07;;;5.30;1.00;;;;;;5014364;28;20852;-86
2021/04/02 08:03:34;;;;;;;12.83;7.83;;;5.30;1.00;;;;;;5019220;28;20946;-86
2021/04/02 08:06:04;;;;;;;21.40;8.70;;;5.20;1.00;;;;;;5020349;28;21772;-85
2021/04/02 08:08:47;;;;;;;14.50;8.23;;;5.20;1.00;;;;;;5019715;28;20458;-85
2021/04/02 08:11:33;;;;;;;15.40;9.57;;;5.20;1.00;;;;;;5021438;28;20479;-84
2021/04/02 08:14:05;;;;;;;14.90;8.53;;;5.20;1.00;;;;;;5016867;28;20435;-85
2021/04/02 08:16:46;;;;;;;14.80;7.97;;;5.20;1.00;;;;;;5021954;28;20530;-82
2021/04/02 08:19:25;;;;;;;15.53;7.70;;;5.40;1.00;;;;;;5020079;28;20456;-83
2021/04/02 08:22:03;;;;;;;16.23;8.67;;;5.20;1.00;;;;;;5018988;28;20885;-87
2021/04/02 08:24:34;;;;;;;12.87;8.33;;;5.30;1.00;;;;;;5016278;28;21063;-88
2021/04/02 08:27:00;;;;;;;13.10;7.73;;;5.40;1.00;;;;;;5021955;28;20454;-87
2021/04/02 08:29:29;;;;;;;19.40;9.40;;;5.40;1.00;;;;;;5017820;28;20464;-85
2021/04/02 08:32:00;;;;;;;18.93;8.73;;;5.40;1.00;;;;;;5019958;28;20848;-81
2021/04/02 08:34:31;;;;;;;19.80;8.40;;;5.40;1.00;;;;;;5011630;28;20492;-81
2021/04/02 08:37:03;;;;;;;13.80;7.83;;;5.50;1.00;;;;;;5017353;28;20464;-82
2021/04/02 08:39:30;;;;;;;18.17;12.80;;;5.50;1.00;;;;;;5012887;28;20458;-83
2021/04/02 08:42:00;;;;;;;15.90;8.13;;;5.60;1.00;;;;;;5018865;28;20451;-83
2021/04/02 08:44:32;;;;;;;17.80;8.10;;;5.80;1.00;;;;;;5017789;28;20468;-83
2021/04/02 08:46:59;;;;;;;16.50;7.57;;;5.90;1.00;;;;;;5021743;28;20734;-82
2021/04/02 08:49:26;;;;;;;16.00;8.00;;;5.80;1.00;;;;;;5017161;28;20446;-83
2021/04/02 08:51:52;;;;;;;14.83;7.53;;;5.90;1.00;;;;;;5017415;28;20485;-82
2021/04/02 08:54:21;;;;;;;13.27;7.90;;;5.90;1.00;;;;;;5017917;28;20568;-83
2021/04/02 08:56:48;;;;;;;16.30;9.00;;;5.90;1.00;;;;;;5013048;28;21184;-82
2021/04/02 08:59:15;;;;;;;14.50;8.27;;;5.90;1.00;;;;;;5019784;28;21362;-82
2021/04/02 09:01:50;;;;;;;12.60;7.00;;;6.00;1.00;;;;;;5019132;28;20473;-81
2021/04/02 09:04:18;;;;;;;19.30;8.97;;;5.90;1.00;;;;;;5015773;28;20545;-82
2021/04/02 09:06:45;;;;;;;14.23;7.67;;;5.80;1.00;;;;;;5016889;28;20440;-82
2021/04/02 09:09:15;;;;;;;13.20;8.93;;;5.90;1.00;;;;;;5019601;28;20492;-82
2021/04/02 09:11:42;;;;;;;16.50;9.00;;;6.20;1.00;;;;;;5026689;28;20466;-83
2021/04/02 09:14:11;;;;;;;12.30;6.80;;;6.20;1.00;;;;;;5021308;28;20930;-83
2021/04/02 09:16:39;;;;;;;11.67;7.30;;;6.30;1.00;;;;;;5013314;28;20486;-83
2021/04/02 09:19:06;;;;;;;18.10;7.17;;;6.30;1.00;;;;;;5018298;28;20511;-82
2021/04/02 09:21:32;;;;;;;11.40;7.83;;;6.10;1.00;;;;;;5017021;28;21072;-82
2021/04/02 09:23:59;;;;;;;12.10;6.23;;;6.00;1.00;;;;;;5017316;28;20492;-82
2021/04/02 09:26:25;;;;;;;10.83;7.77;;;5.90;1.00;;;;;;5015862;28;20446;-81
2021/04/02 09:28:56;;;;;;;12.20;6.93;;;5.90;1.00;;;;;;5015518;28;20469;-82
2021/04/02 09:31:32;;;;;;;10.70;6.23;;;6.00;1.00;;;;;;5007520;28;20497;-82
2021/04/02 09:34:00;;;;;;;19.20;7.17;;;6.10;1.00;;;;;;5012475;28;20492;-82
2021/04/02 09:36:28;;;;;;;12.20;7.70;;;6.30;1.00;;;;;;5016947;28;21390;-82
2021/04/02 09:39:16;;;;;;;12.13;7.60;;;6.20;1.00;;;;;;5016282;28;20457;-82
2021/04/02 09:41:49;;;;;;;10.97;6.50;;;6.20;1.00;;;;;;5013947;28;20454;-83
2021/04/02 09:44:16;;;;;;;12.20;8.60;;;6.20;1.00;;;;;;5017853;28;20465;-82
2021/04/02 09:46:47;;;;;;;10.10;7.67;;;6.30;1.00;;;;;;5017980;28;20504;-83
2021/04/02 09:49:16;;;;;;;13.20;7.30;;;6.30;1.00;;;;;;5025146;28;21211;-83
2021/04/02 09:51:43;;;;;;;11.47;6.83;;;6.20;1.00;;;;;;5015075;28;21038;-81
2021/04/02 09:54:10;;;;;;;17.57;6.50;;;6.30;1.00;;;;;;5015389;28;20446;-83
2021/04/02 09:56:39;;;;;;;10.70;7.00;;;6.30;1.00;;;;;;5017600;28;20843;-83
2021/04/02 09:59:06;;;;;;;9.63;6.50;;;6.30;1.00;;;;;;5018867;28;21005;-81
2021/04/02 10:01:37;;;;;;;12.20;7.27;;;6.40;1.00;;;;;;5011159;28;20478;-82
2021/04/02 10:04:04;;;;;;;9.87;6.57;;;6.60;1.00;;;;;;5012684;28;20461;-83
2021/04/02 10:06:30;;;;;;;8.67;6.13;;;6.60;1.00;;;;;;5016809;28;20451;-82
2021/04/02 10:08:56;;;;;;;9.90;7.10;;;6.60;1.00;;;;;;5016585;28;20457;-83
2021/04/02 10:11:23;;;;;;;10.20;6.30;;;6.60;1.00;;;;;;5014787;28;20480;-83
2021/04/02 10:13:49;;;;;;;10.07;6.73;;;6.60;1.00;;;;;;5014177;28;20813;-83
2021/04/02 10:16:17;;;;;;;11.50;6.97;;;6.60;1.00;;;;;;5016257;28;20469;-82
2021/04/02 10:18:42;;;;;;;12.33;6.33;;;6.60;1.00;;;;;;5017014;28;20462;-82
2021/04/02 10:21:08;;;;;;;11.33;7.20;;;6.70;1.00;;;;;;5013770;28;20442;-83
2021/04/02 10:23:35;;;;;;;14.93;7.00;;;6.80;1.00;;;;;;5013126;28;20214;-83
2021/04/02 10:26:01;;;;;;;8.30;6.60;;;6.70;1.00;;;;;;5016241;28;20601;-81
2021/04/02 10:28:27;;;;;;;9.57;6.30;;;6.80;1.00;;;;;;5015670;28;20558;-82
2021/04/02 10:30:53;;;;;;;10.57;7.67;;;6.90;1.00;;;;;;5013128;28;20812;-83
2021/04/02 10:33:19;;;;;;;13.50;7.07;;;6.90;1.00;;;;;;5013324;28;20218;-82
2021/04/02 10:35:45;;;;;;;9.10;5.83;;;7.00;1.00;;;;;;5014098;28;20992;-82
2021/04/02 10:38:11;;;;;;;13.10;6.73;;;7.00;1.00;;;;;;5005696;28;20743;-82
2021/04/02 10:40:38;;;;;;;10.80;6.87;;;7.00;1.00;;;;;;5011627;28;20469;-82
2021/04/02 10:43:05;;;;;;;12.87;7.60;;;7.00;1.00;;;;;;5014862;28;20470;-84
2021/04/02 10:45:31;;;;;;;9.80;7.10;;;7.00;1.00;;;;;;5009286;28;20448;-84
2021/04/02 10:47:57;;;;;;;8.20;6.40;;;7.10;1.00;;;;;;5012088;28;20553;-83
2021/04/02 10:50:24;;;;;;;7.03;6.03;;;7.00;1.00;;;;;;5000978;28;20211;-84
2021/04/02 10:52:51;;;;;;;8.03;6.03;;;7.00;1.00;;;;;;5003612;28;20473;-83
2021/04/02 10:55:17;;;;;;;12.53;6.97;;;6.90;1.00;;;;;;4990712;28;21380;-83
2021/04/02 10:57:43;;;;;;;11.27;6.50;;;6.80;1.00;;;;;;4988287;28;20613;-77
2021/04/02 11:00:11;;;;;;;10.27;6.13;;;7.00;1.00;;;;;;4987243;28;20430;-82
2021/04/02 11:02:36;;;;;;;7.50;6.17;;;6.90;1.00;;;;;;4991418;28;21557;-82
2021/04/02 11:05:05;;;;;;;9.77;6.47;;;7.00;1.00;;;;;;4997471;28;20458;-81
2021/04/02 11:07:30;;;;;;;7.30;6.60;;;7.00;1.00;;;;;;4998083;28;20462;-81
2021/04/02 11:09:56;;;;;;;9.13;6.63;;;7.00;1.00;;;;;;5003172;28;20457;-81
2021/04/02 11:12:28;;;;;;;8.87;7.90;;;7.10;1.00;;;;;;5001397;28;20245;-81
2021/04/02 11:14:54;;;;;;;13.93;7.90;;;7.10;1.00;;;;;;5000913;28;20191;-80
2021/04/02 11:17:20;;;;;;;10.60;6.97;;;7.20;1.00;;;;;;5004540;28;20509;-82
2021/04/02 11:19:46;;;;;;;12.97;6.60;;;7.20;1.00;;;;;;4996999;28;21264;-82
2021/04/02 11:22:12;;;;;;;12.77;7.03;;;7.30;1.00;;;;;;4996038;28;20462;-82
2021/04/02 11:24:37;;;;;;;8.60;5.67;;;7.20;1.00;;;;;;4986360;28;20183;-78
2021/04/02 11:27:03;;;;;;;11.87;6.60;;;7.20;1.00;;;;;;5003640;28;20713;-78
2021/04/02 11:29:29;;;;;;;10.30;5.70;;;7.30;1.00;;;;;;5002916;28;20240;-78
2021/04/02 11:31:55;;;;;;;12.27;6.10;;;7.20;1.00;;;;;;5019555;28;21008;-81
2021/04/02 11:34:20;;;;;;;10.83;7.13;;;7.20;1.00;;;;;;4998317;28;20408;-80
2021/04/02 11:36:46;;;;;;;13.73;7.80;;;7.20;1.00;;;;;;5001886;28;20452;-81
2021/04/02 11:39:12;;;;;;;12.27;8.67;;;7.20;1.00;;;;;;5003100;28;20364;-80
2021/04/02 11:41:38;;;;;;;13.47;9.40;;;7.10;1.00;;;;;;5006128;28;20185;-84
2021/04/02 11:44:03;;;;;;;25.23;8.80;;;7.10;1.00;;;;;;5010192;28;20200;-82
2021/04/02 11:46:29;;;;;;;18.17;9.83;;;7.20;1.00;;;;;;5008076;28;20209;-83
2021/04/02 11:48:55;;;;;;;16.10;11.80;;;7.20;1.00;;;;;;5006129;28;20209;-82
2021/04/02 11:51:21;;;;;;;15.10;11.47;;;7.10;1.00;;;;;;5005839;28;20457;-82
2021/04/02 11:53:46;;;;;;;20.30;12.50;;;7.10;1.00;;;;;;4996252;28;20191;-84
2021/04/02 11:56:12;;;;;;;20.27;12.37;;;7.00;1.00;;;;;;5005457;28;20196;-85
2021/04/02 11:58:38;;;;;;;16.73;12.90;;;7.10;1.00;;;;;;5004082;28;20240;-87
2021/04/02 12:01:03;;;;;;;23.57;14.50;;;7.10;1.00;;;;;;4992388;28;20537;-82
2021/04/02 12:03:29;;;;;;;24.60;14.80;;;7.00;1.00;;;;;;4997456;28;20361;-82
2021/04/02 12:05:55;;;;;;;27.10;16.20;;;6.90;1.00;;;;;;4999452;28;20183;-82
2021/04/02 12:08:20;;;;;;;32.40;19.27;;;6.80;1.00;;;;;;5007500;28;20198;-83
2021/04/02 12:10:47;;;;;;;28.40;18.30;;;6.90;1.00;;;;;;5006172;28;20266;-84
2021/04/02 12:13:13;;;;;;;18.97;15.17;;;6.80;1.00;;;;;;5010710;28;20183;-80
2021/04/02 12:15:38;;;;;;;21.83;13.70;;;6.80;1.00;;;;;;5011055;28;21087;-83
2021/04/02 12:18:05;;;;;;;26.40;14.40;;;6.80;1.00;;;;;;5007823;28;20574;-83
2021/04/02 12:20:31;;;;;;;18.33;14.33;;;6.90;1.00;;;;;;5001971;28;22403;-83
2021/04/02 12:22:57;;;;;;;21.23;13.80;;;7.00;1.00;;;;;;4999824;28;20458;-82
2021/04/02 12:25:23;;;;;;;28.77;13.83;;;7.10;1.00;;;;;;5003440;28;20504;-81
2021/04/02 12:27:49;;;;;;;17.20;12.40;;;7.20;1.00;;;;;;5007720;28;20487;-82
2021/04/02 12:30:16;;;;;;;19.00;13.40;;;7.40;1.00;;;;;;5009480;28;20287;-82
2021/04/02 12:32:42;;;;;;;21.60;13.33;;;7.30;1.00;;;;;;5004960;28;20672;-82
2021/04/02 12:35:10;;;;;;;23.93;12.93;;;7.40;1.00;;;;;;5016139;28;20446;-83
2021/04/02 12:37:35;;;;;;;16.13;12.27;;;7.50;1.00;;;;;;5020520;28;20488;-84
2021/04/02 12:40:12;;;;;;;17.00;12.63;;;7.70;1.00;;;;;;5022208;28;20493;-83
2021/04/02 12:42:38;;;;;;;14.17;10.53;;;7.90;1.00;;;;;;5014889;28;21987;-83
2021/04/02 12:45:06;;;;;;;20.60;12.03;;;7.80;1.00;;;;;;5010219;28;20450;-83
2021/04/02 12:47:31;;;;;;;16.53;11.50;;;7.80;1.00;;;;;;5006571;28;20284;-82
2021/04/02 12:49:57;;;;;;;13.40;11.00;;;7.40;1.00;;;;;;5002892;28;20443;-82
2021/04/02 12:52:23;;;;;;;18.40;12.20;;;7.40;1.00;;;;;;5008448;28;20205;-82
2021/04/02 12:54:48;;;;;;;12.20;10.63;;;7.70;1.00;;;;;;5012144;28;20202;-86
2021/04/02 12:57:14;;;;;;;17.83;10.40;;;7.80;1.00;;;;;;5012910;28;20236;-85
2021/04/02 12:59:40;;;;;;;14.30;9.17;;;7.80;1.00;;;;;;5013726;28;20215;-84
2021/04/02 13:02:06;;;;;;;12.83;9.00;;;7.80;1.00;;;;;;5011440;28;20318;-85
2021/04/02 13:04:31;;;;;;;20.30;11.33;;;7.60;1.00;;;;;;5007463;28;20182;-87